createdAt,value
2017-12-13T00:00:50.095Z,0.20
2017-12-13T00:03:18.217Z,0.20
2017-12-13T00:05:47.103Z,0.20
2017-12-13T00:08:15.999Z,0.20
2017-12-13T00:10:44.890Z,0.20
2017-12-13T00:13:13.799Z,0.20
2017-12-13T00:15:41.910Z,0.20
2017-12-13T00:18:10.019Z,0.20
2017-12-13T00:20:38.909Z,0.20
2017-12-13T00:23:07.783Z,0.10
2017-12-13T00:25:36.000Z,0.10
2017-12-13T00:28:04.870Z,0.10
2017-12-13T00:30:33.767Z,0.10
2017-12-13T00:33:01.880Z,0.00
2017-12-13T00:35:30.004Z,0.00
2017-12-13T00:37:58.896Z,0.00
2017-12-13T00:40:27.763Z,-0.10
2017-12-13T00:42:56.671Z,-0.10
2017-12-13T00:45:25.561Z,-0.10
2017-12-13T00:47:53.706Z,-0.10
2017-12-13T00:50:21.811Z,-0.10
2017-12-13T00:52:50.008Z,-0.10
2017-12-13T00:55:18.099Z,-0.10
2017-12-13T00:57:46.227Z,-0.10
2017-12-13T01:00:14.377Z,0.00
2017-12-13T01:02:42.481Z,0.00
2017-12-13T01:05:10.615Z,-0.10
2017-12-13T01:07:38.747Z,-0.10
2017-12-13T01:10:06.901Z,-0.10
2017-12-13T01:12:35.075Z,-0.10
2017-12-13T01:15:03.958Z,-0.20
2017-12-13T01:17:32.078Z,-0.20
2017-12-13T01:20:00.199Z,-0.20
2017-12-13T01:22:28.342Z,-0.20
2017-12-13T01:24:56.454Z,-0.20
2017-12-13T01:27:24.586Z,-0.20
2017-12-13T01:29:52.719Z,-0.30
2017-12-13T01:32:20.838Z,-0.30
2017-12-13T01:34:49.761Z,-0.30
2017-12-13T01:37:17.867Z,-0.30
2017-12-13T01:39:45.991Z,-0.40
2017-12-13T01:42:14.118Z,-0.40
2017-12-13T01:44:43.751Z,-0.50
2017-12-13T01:47:12.649Z,-0.50
2017-12-13T01:49:41.548Z,-0.50
2017-12-13T01:52:09.684Z,-0.60
2017-12-13T01:54:37.803Z,-0.60
2017-12-13T01:57:05.933Z,-0.60
2017-12-13T01:59:34.056Z,-0.70
2017-12-13T02:02:02.202Z,-0.70
2017-12-13T02:04:31.088Z,-0.80
2017-12-13T02:06:59.961Z,-0.80
2017-12-13T02:09:28.098Z,-0.80
2017-12-13T02:11:56.220Z,-0.80
2017-12-13T02:14:25.130Z,-0.80
2017-12-13T02:16:53.253Z,-0.90
2017-12-13T02:19:21.380Z,-0.80
2017-12-13T02:21:49.502Z,-0.90
2017-12-13T02:24:17.641Z,-0.90
2017-12-13T02:26:45.777Z,-0.90
2017-12-13T02:29:14.641Z,-1.00
2017-12-13T02:31:42.778Z,-1.00
2017-12-13T02:34:10.932Z,-1.00
2017-12-13T02:36:39.044Z,-1.00
2017-12-13T02:39:07.178Z,-1.00
2017-12-13T02:41:35.362Z,-1.00
2017-12-13T02:44:03.458Z,-1.00
2017-12-13T02:46:31.599Z,-1.00
2017-12-13T02:48:59.766Z,-1.00
2017-12-13T02:51:27.857Z,-1.00
2017-12-13T02:53:55.982Z,-1.00
2017-12-13T02:56:24.882Z,-1.00
2017-12-13T02:58:53.777Z,-1.00
2017-12-13T03:01:21.900Z,-1.00
2017-12-13T03:03:50.044Z,-1.00
2017-12-13T03:06:18.160Z,-1.00
2017-12-13T03:08:46.290Z,-1.00
2017-12-13T03:11:14.410Z,-1.00
2017-12-13T03:13:43.320Z,-1.10
2017-12-13T03:16:11.439Z,-1.10
2017-12-13T03:18:39.562Z,-1.10
2017-12-13T03:21:07.691Z,-1.10
2017-12-13T03:23:35.811Z,-1.10
2017-12-13T03:26:03.933Z,-1.10
2017-12-13T03:28:32.054Z,-1.10
2017-12-13T03:31:00.202Z,-1.10
2017-12-13T03:33:28.314Z,-1.10
2017-12-13T03:35:56.426Z,-1.10
2017-12-13T03:38:24.562Z,-1.10
2017-12-13T03:40:52.714Z,-1.10
2017-12-13T03:43:20.842Z,-1.10
2017-12-13T03:45:48.959Z,-1.10
2017-12-13T03:48:17.116Z,-1.10
2017-12-13T03:50:45.996Z,-1.20
2017-12-13T03:53:14.116Z,-1.20
2017-12-13T03:55:42.248Z,-1.20
2017-12-13T03:58:11.147Z,-1.20
2017-12-13T04:00:40.049Z,-1.20
2017-12-13T04:03:08.163Z,-1.20
2017-12-13T04:05:37.814Z,-1.30
2017-12-13T04:08:06.701Z,-1.20
2017-12-13T04:10:35.593Z,-1.20
2017-12-13T04:13:04.490Z,-1.20
2017-12-13T04:15:32.632Z,-1.30
2017-12-13T04:18:00.752Z,-1.30
2017-12-13T04:20:28.877Z,-1.30
2017-12-13T04:22:56.992Z,-1.30
2017-12-13T04:25:25.106Z,-1.40
2017-12-13T04:27:53.254Z,-1.40
2017-12-13T04:30:21.366Z,-1.40
2017-12-13T04:32:49.499Z,-1.40
2017-12-13T04:35:17.625Z,-1.40
2017-12-13T04:37:46.521Z,-1.30
2017-12-13T04:40:15.420Z,-1.30
2017-12-13T04:42:43.540Z,-1.30
2017-12-13T04:45:11.683Z,-1.30
2017-12-13T04:47:39.797Z,-1.20
2017-12-13T04:50:07.933Z,-1.20
2017-12-13T04:52:36.043Z,-1.10
2017-12-13T04:55:04.170Z,-1.10
2017-12-13T04:57:32.303Z,-1.10
2017-12-13T05:00:01.184Z,-1.20
2017-12-13T05:02:29.314Z,-1.20
2017-12-13T05:04:57.439Z,-1.20
2017-12-13T05:07:25.582Z,-1.30
2017-12-13T05:09:53.702Z,-1.30
2017-12-13T05:12:21.828Z,-1.30
2017-12-13T05:14:51.484Z,-1.40
2017-12-13T05:17:19.610Z,-1.40
2017-12-13T05:19:47.751Z,-1.30
2017-12-13T05:22:15.878Z,-1.30
2017-12-13T05:24:44.805Z,-1.20
2017-12-13T05:27:13.662Z,-1.20
2017-12-13T05:29:42.575Z,-1.20
2017-12-13T05:32:10.706Z,-1.20
2017-12-13T05:34:38.851Z,-1.20
2017-12-13T05:37:06.970Z,-1.20
2017-12-13T05:39:35.848Z,-1.10
2017-12-13T05:42:04.747Z,-1.10
2017-12-13T05:44:33.627Z,-1.10
2017-12-13T05:47:02.560Z,-1.10
2017-12-13T05:49:31.414Z,-1.10
2017-12-13T05:52:00.308Z,-1.10
2017-12-13T05:54:29.194Z,-1.10
2017-12-13T05:56:58.074Z,-1.10
2017-12-13T05:59:26.209Z,-1.10
2017-12-13T06:01:54.322Z,-1.10
2017-12-13T06:04:23.253Z,-1.00
2017-12-13T06:06:52.119Z,-1.00
2017-12-13T06:09:21.002Z,-1.00
2017-12-13T06:11:49.882Z,-1.00
2017-12-13T06:14:18.782Z,-1.10
2017-12-13T06:16:47.662Z,-1.10
2017-12-13T06:19:16.590Z,-1.10
2017-12-13T06:21:44.722Z,-1.10
2017-12-13T06:24:12.839Z,-1.10
2017-12-13T06:26:40.963Z,-1.10
2017-12-13T06:29:09.107Z,-1.10
2017-12-13T06:31:37.253Z,-1.20
2017-12-13T06:34:05.356Z,-1.20
2017-12-13T06:36:33.474Z,-1.20
2017-12-13T06:39:02.366Z,-1.30
2017-12-13T06:41:30.480Z,-1.30
2017-12-13T06:43:58.615Z,-1.30
2017-12-13T06:46:26.813Z,-1.40
2017-12-13T06:48:54.936Z,-1.40
2017-12-13T06:51:23.059Z,-1.40
2017-12-13T06:53:51.207Z,-1.40
2017-12-13T06:56:19.338Z,-1.40
2017-12-13T06:58:47.449Z,-1.40
2017-12-13T07:01:15.593Z,-1.40
2017-12-13T07:03:43.705Z,-1.40
2017-12-13T07:06:11.835Z,-1.40
2017-12-13T07:08:39.961Z,-1.40
2017-12-13T07:11:08.093Z,-1.40
2017-12-13T07:13:37.002Z,-1.30
2017-12-13T07:16:05.131Z,-1.40
2017-12-13T07:18:33.249Z,-1.30
2017-12-13T07:21:01.375Z,-1.30
2017-12-13T07:23:29.508Z,-1.20
2017-12-13T07:25:57.624Z,-1.20
2017-12-13T07:28:25.766Z,-1.10
2017-12-13T07:30:53.884Z,-1.10
2017-12-13T07:33:22.023Z,-1.10
2017-12-13T07:35:50.162Z,-1.10
2017-12-13T07:38:18.277Z,-1.00
2017-12-13T07:40:46.424Z,-0.90
2017-12-13T07:43:14.534Z,-0.90
2017-12-13T07:45:42.689Z,-0.90
2017-12-13T07:48:10.867Z,-0.90
2017-12-13T07:50:39.753Z,-0.90
2017-12-13T07:53:07.902Z,-0.90
2017-12-13T07:55:36.027Z,-0.80
2017-12-13T07:58:04.160Z,-0.80
2017-12-13T08:00:32.284Z,-0.80
2017-12-13T08:03:01.206Z,-0.70
2017-12-13T08:05:29.319Z,-0.80
2017-12-13T08:07:57.436Z,-0.70
2017-12-13T08:10:25.590Z,-0.70
2017-12-13T08:12:54.476Z,-0.70
2017-12-13T08:15:23.377Z,-0.70
2017-12-13T08:17:51.516Z,-0.70
2017-12-13T08:20:20.409Z,-0.60
2017-12-13T08:22:48.579Z,-0.70
2017-12-13T08:25:16.683Z,-0.60
2017-12-13T08:27:44.819Z,-0.60
2017-12-13T08:30:12.957Z,-0.60
2017-12-13T08:32:41.079Z,-0.60
2017-12-13T08:35:09.972Z,-0.50
2017-12-13T08:37:38.118Z,-0.60
2017-12-13T08:40:06.248Z,-0.50
2017-12-13T08:42:36.060Z,-0.50
2017-12-13T08:45:05.035Z,-0.50
2017-12-13T08:47:33.921Z,-0.40
2017-12-13T08:50:02.852Z,-0.40
2017-12-13T08:52:30.981Z,-0.40
2017-12-13T08:54:59.877Z,-0.30
2017-12-13T08:57:28.015Z,-0.30
2017-12-13T08:59:56.141Z,-0.20
2017-12-13T09:02:24.302Z,-0.20
2017-12-13T09:04:52.449Z,-0.10
2017-12-13T09:07:21.366Z,0.10
2017-12-13T09:09:50.245Z,0.10
2017-12-13T09:12:19.139Z,0.20
2017-12-13T09:14:48.038Z,0.30
2017-12-13T09:17:16.200Z,0.30
2017-12-13T09:19:45.132Z,0.40
2017-12-13T09:22:13.236Z,0.40
2017-12-13T09:24:41.361Z,0.50
2017-12-13T09:27:09.484Z,0.60
2017-12-13T09:29:38.384Z,0.80
2017-12-13T09:32:07.263Z,0.90
2017-12-13T09:34:35.404Z,0.90
2017-12-13T09:37:03.530Z,1.10
2017-12-13T09:39:32.397Z,1.20
2017-12-13T09:42:01.309Z,1.30
2017-12-13T09:44:30.183Z,1.50
2017-12-13T09:46:58.332Z,1.40
2017-12-13T09:49:26.454Z,1.50
2017-12-13T09:51:54.603Z,1.60
2017-12-13T09:54:22.698Z,1.70
2017-12-13T09:56:50.832Z,1.80
2017-12-13T09:59:18.953Z,1.90
2017-12-13T10:01:47.063Z,2.00
2017-12-13T10:04:15.202Z,2.00
2017-12-13T10:06:43.321Z,2.10
2017-12-13T10:09:11.442Z,2.20
2017-12-13T10:11:39.566Z,2.40
2017-12-13T10:14:07.698Z,2.40
2017-12-13T10:16:35.827Z,2.50
2017-12-13T10:19:04.711Z,2.70
2017-12-13T10:21:33.594Z,2.80
2017-12-13T10:24:02.484Z,2.90
2017-12-13T10:26:30.623Z,2.90
2017-12-13T10:28:58.783Z,3.00
2017-12-13T10:31:27.655Z,3.20
2017-12-13T10:33:55.768Z,3.20
2017-12-13T10:36:23.910Z,3.40
2017-12-13T10:38:52.052Z,3.50
2017-12-13T10:41:21.120Z,3.60
2017-12-13T10:43:50.390Z,3.80
2017-12-13T10:46:18.502Z,3.80
2017-12-13T10:48:47.394Z,4.10
2017-12-13T10:51:16.294Z,4.20
2017-12-13T10:53:45.185Z,4.40
2017-12-13T10:56:14.066Z,4.60
2017-12-13T10:58:42.944Z,4.80
2017-12-13T11:01:11.850Z,5.00
2017-12-13T11:03:40.737Z,5.20
2017-12-13T11:06:09.639Z,5.50
2017-12-13T11:08:38.517Z,5.80
2017-12-13T11:11:07.423Z,6.10
2017-12-13T11:13:35.529Z,6.00
2017-12-13T11:16:03.653Z,6.40
2017-12-13T11:18:32.554Z,7.10
2017-12-13T11:21:00.658Z,7.10
2017-12-13T11:23:28.791Z,7.40
2017-12-13T11:25:57.685Z,7.60
2017-12-13T11:28:26.578Z,7.80
2017-12-13T11:30:55.461Z,8.00
2017-12-13T11:33:23.609Z,8.00
2017-12-13T11:35:51.739Z,8.40
2017-12-13T11:38:19.904Z,8.70
2017-12-13T11:40:48.026Z,9.00
2017-12-13T11:43:18.541Z,9.30
2017-12-13T11:45:46.937Z,9.30
2017-12-13T11:48:15.010Z,9.60
2017-12-13T11:50:43.923Z,10.30
2017-12-13T11:53:12.052Z,10.30
2017-12-13T11:55:40.175Z,10.70
2017-12-13T11:58:10.384Z,10.90
2017-12-13T12:00:38.790Z,11.10
2017-12-13T12:03:06.932Z,11.30
2017-12-13T12:05:35.812Z,11.70
2017-12-13T12:08:04.721Z,11.70
2017-12-13T12:10:32.912Z,11.60
2017-12-13T12:13:01.020Z,11.80
2017-12-13T12:15:29.136Z,11.90
2017-12-13T12:18:00.921Z,11.80
2017-12-13T12:20:29.010Z,11.60
2017-12-13T12:22:57.968Z,11.50
2017-12-13T12:25:26.106Z,11.50
2017-12-13T12:27:55.002Z,11.60
2017-12-13T12:30:23.899Z,11.40
2017-12-13T12:32:52.030Z,11.40
2017-12-13T12:35:20.185Z,11.20
2017-12-13T12:37:48.298Z,11.10
2017-12-13T12:40:17.187Z,10.90
2017-12-13T12:42:45.328Z,10.90
2017-12-13T12:45:13.918Z,10.70
2017-12-13T12:47:42.058Z,10.50
2017-12-13T12:50:10.171Z,10.50
2017-12-13T12:52:38.336Z,10.40
2017-12-13T12:55:06.462Z,10.30
2017-12-13T12:57:34.614Z,10.10
2017-12-13T13:00:03.518Z,9.90
2017-12-13T13:02:32.323Z,9.90
2017-12-13T13:05:00.435Z,9.90
2017-12-13T13:07:28.578Z,9.90
2017-12-13T13:09:56.721Z,9.80
2017-12-13T13:12:24.851Z,9.60
2017-12-13T13:14:52.979Z,9.30
2017-12-13T13:17:21.111Z,9.00
2017-12-13T13:19:49.253Z,8.80
2017-12-13T13:22:17.374Z,8.80
2017-12-13T13:24:46.252Z,9.20
2017-12-13T13:27:15.269Z,9.50
2017-12-13T13:29:44.130Z,9.70
2017-12-13T13:32:13.046Z,9.80
2017-12-13T13:34:41.926Z,9.70
2017-12-13T13:37:10.857Z,9.20
2017-12-13T13:39:39.012Z,9.20
2017-12-13T13:42:07.182Z,8.80
2017-12-13T13:44:36.072Z,7.80
2017-12-13T13:47:04.934Z,7.50
2017-12-13T13:49:33.849Z,7.10
2017-12-13T13:52:02.032Z,7.10
2017-12-13T13:54:30.916Z,6.60
2017-12-13T13:56:59.790Z,6.40
2017-12-13T13:59:28.666Z,6.20
2017-12-13T14:01:57.572Z,6.00
2017-12-13T14:04:26.816Z,5.80
2017-12-13T14:06:54.949Z,5.80
2017-12-13T14:09:23.077Z,5.70
2017-12-13T14:11:51.220Z,5.60
2017-12-13T14:14:19.334Z,5.50
2017-12-13T14:16:48.224Z,5.40
2017-12-13T14:19:17.124Z,5.30
2017-12-13T14:21:46.026Z,5.20
2017-12-13T14:24:14.136Z,5.20
2017-12-13T14:26:42.257Z,5.10
2017-12-13T14:29:11.163Z,4.90
2017-12-13T14:31:39.281Z,4.90
2017-12-13T14:34:07.395Z,4.80
2017-12-13T14:36:36.311Z,4.60
2017-12-13T14:39:04.440Z,4.60
2017-12-13T14:41:32.572Z,4.50
2017-12-13T14:44:00.730Z,4.40
2017-12-13T14:46:28.862Z,4.30
2017-12-13T14:48:57.798Z,4.10
2017-12-13T14:51:25.921Z,4.10
2017-12-13T14:53:54.815Z,4.00
2017-12-13T14:56:23.746Z,3.90
2017-12-13T14:58:51.877Z,3.90
2017-12-13T15:01:19.991Z,3.80
2017-12-13T15:03:48.119Z,3.70
2017-12-13T15:06:16.257Z,3.70
2017-12-13T15:08:44.390Z,3.60
2017-12-13T15:11:12.523Z,3.50
2017-12-13T15:13:40.651Z,3.50
2017-12-13T15:16:08.776Z,3.40
2017-12-13T15:18:36.919Z,3.30
2017-12-13T15:21:05.053Z,3.30
2017-12-13T15:23:33.176Z,3.20
2017-12-13T15:26:01.301Z,3.10
2017-12-13T15:28:29.448Z,3.00
2017-12-13T15:30:58.327Z,2.90
2017-12-13T15:33:26.502Z,2.80
2017-12-13T15:35:54.622Z,2.80
2017-12-13T15:38:22.769Z,2.80
2017-12-13T15:40:51.639Z,2.70
2017-12-13T15:43:20.576Z,2.70
2017-12-13T15:45:48.682Z,2.60
2017-12-13T15:48:16.798Z,2.60
2017-12-13T15:50:44.933Z,2.50
2017-12-13T15:53:24.073Z,2.50
2017-12-13T15:55:52.206Z,2.40
2017-12-13T15:58:20.336Z,2.40
2017-12-13T16:00:48.488Z,2.40
2017-12-13T16:03:16.629Z,2.30
2017-12-13T16:05:59.219Z,2.20
2017-12-13T16:08:27.846Z,2.20
2017-12-13T16:10:56.777Z,2.10
2017-12-13T16:13:25.685Z,2.10
2017-12-13T16:36:34.531Z,1.70
2017-12-13T16:39:02.718Z,1.70
2017-12-13T16:41:30.834Z,1.60
2017-12-13T16:43:58.973Z,1.60
2017-12-13T16:46:27.127Z,1.50
2017-12-13T16:48:55.272Z,1.40
2017-12-13T16:51:23.391Z,1.40
2017-12-13T16:53:51.501Z,1.40
2017-12-13T16:56:20.402Z,1.30
2017-12-13T16:58:49.311Z,1.30
2017-12-13T17:01:17.455Z,1.30
2017-12-13T17:03:45.625Z,1.30
2017-12-13T17:06:13.770Z,1.30
2017-12-13T17:08:41.929Z,1.30
2017-12-13T17:11:10.055Z,1.30
2017-12-13T17:13:38.978Z,1.40
2017-12-13T17:16:07.072Z,1.40
2017-12-13T17:18:35.237Z,1.50
2017-12-13T17:21:03.370Z,1.50
2017-12-13T17:23:31.481Z,1.40
2017-12-13T17:26:00.305Z,1.50
2017-12-13T17:28:36.516Z,1.40
2017-12-13T17:31:04.637Z,1.40
2017-12-13T17:33:33.519Z,1.50
2017-12-13T17:36:01.648Z,1.40
2017-12-13T17:38:29.818Z,1.50
2017-12-13T17:40:58.822Z,1.50
2017-12-13T17:43:26.940Z,1.50
2017-12-13T17:45:55.846Z,1.60
2017-12-13T17:48:24.743Z,1.60
2017-12-13T17:50:52.900Z,1.60
2017-12-13T17:53:21.794Z,1.70
2017-12-13T17:55:50.690Z,1.80
2017-12-13T17:58:19.575Z,1.80
2017-12-13T18:00:48.475Z,1.90
2017-12-13T18:03:16.615Z,1.80
2017-12-13T18:05:44.741Z,1.90
2017-12-13T18:08:12.878Z,2.00
2017-12-13T18:10:41.766Z,2.00
2017-12-13T18:13:10.758Z,2.00
2017-12-13T18:15:39.715Z,2.10
2017-12-13T18:18:07.880Z,2.00
2017-12-13T18:20:36.005Z,2.10
2017-12-13T18:23:04.160Z,2.10
2017-12-13T18:25:33.072Z,2.20
2017-12-13T18:28:01.233Z,2.20
2017-12-13T18:30:30.166Z,2.30
2017-12-13T18:32:58.311Z,2.30
2017-12-13T18:35:26.440Z,2.40
2017-12-13T18:37:54.602Z,2.40
2017-12-13T18:40:22.744Z,2.40
2017-12-13T18:42:50.881Z,2.50
2017-12-13T18:45:20.925Z,2.50
2017-12-13T18:47:49.083Z,2.50
2017-12-13T18:50:17.178Z,2.50
2017-12-13T18:52:45.307Z,2.50
2017-12-13T18:55:14.205Z,2.60
2017-12-13T18:57:43.093Z,2.60
2017-12-13T19:00:13.412Z,2.60
2017-12-13T19:02:42.305Z,2.70
2017-12-13T19:05:10.421Z,2.70
2017-12-13T19:07:38.554Z,2.70
2017-12-13T19:10:07.433Z,2.80
2017-12-13T19:12:36.386Z,2.90
2017-12-13T19:15:05.278Z,2.90
2017-12-13T19:17:33.416Z,2.90
2017-12-13T19:20:01.536Z,2.90
2017-12-13T19:22:29.776Z,2.90
2017-12-13T19:24:57.889Z,2.90
2017-12-13T19:27:26.023Z,2.90
2017-12-13T19:29:54.177Z,3.00
2017-12-13T19:32:22.354Z,3.00
2017-12-13T19:34:51.284Z,3.00
2017-12-13T19:37:19.411Z,3.00
2017-12-13T19:39:47.533Z,3.00
2017-12-13T19:42:15.697Z,3.00
2017-12-13T19:44:43.806Z,3.00
2017-12-13T19:47:12.773Z,3.00
2017-12-13T19:49:41.177Z,3.00
2017-12-13T19:52:10.176Z,3.00
2017-12-13T19:54:39.106Z,3.00
2017-12-13T19:57:07.286Z,3.00
2017-12-13T19:59:35.439Z,3.10
2017-12-13T20:02:03.590Z,3.10
2017-12-13T20:04:32.532Z,3.20
2017-12-13T20:07:01.471Z,3.20
2017-12-13T20:09:30.405Z,3.20
2017-12-13T20:11:58.683Z,3.20
2017-12-13T20:14:27.626Z,3.20
2017-12-13T20:16:56.549Z,3.20
2017-12-13T20:19:25.081Z,3.20
2017-12-13T20:21:53.464Z,3.20
2017-12-13T20:24:22.436Z,3.20
2017-12-13T20:26:50.685Z,3.20
2017-12-13T20:29:19.014Z,3.20
2017-12-13T20:31:47.477Z,3.20
2017-12-13T20:34:16.097Z,3.10
2017-12-13T20:36:44.282Z,3.10
2017-12-13T20:39:12.523Z,3.10
2017-12-13T20:41:40.740Z,3.10
2017-12-13T20:44:08.935Z,3.00
2017-12-13T20:46:37.137Z,3.00
2017-12-13T20:49:05.423Z,3.00
2017-12-13T20:51:34.456Z,2.90
2017-12-13T20:54:02.681Z,2.90
2017-12-13T20:56:30.903Z,2.90
2017-12-13T20:59:01.193Z,2.90
2017-12-13T21:01:30.134Z,2.90
2017-12-13T21:03:58.308Z,2.90
2017-12-13T21:06:26.466Z,2.90
2017-12-13T21:08:54.864Z,2.90
2017-12-13T21:11:23.289Z,2.90
2017-12-13T21:13:51.457Z,3.00
2017-12-13T21:16:20.374Z,3.00
2017-12-13T21:18:48.603Z,3.00
2017-12-13T21:21:16.820Z,3.00
2017-12-13T21:23:45.759Z,3.00
2017-12-13T21:26:14.014Z,3.00
2017-12-13T21:28:42.275Z,3.10
2017-12-13T21:31:10.506Z,3.00
2017-12-13T21:33:39.426Z,3.00
2017-12-13T21:36:07.583Z,3.00
2017-12-13T21:38:36.494Z,3.00
2017-12-13T21:41:04.696Z,3.00
2017-12-13T21:43:33.055Z,3.00
2017-12-13T21:46:01.312Z,2.90
2017-12-13T21:48:29.519Z,3.00
2017-12-13T21:50:58.063Z,2.90
2017-12-13T21:53:27.100Z,2.90
2017-12-13T21:55:55.216Z,2.90
2017-12-13T21:58:23.352Z,3.00
2017-12-13T22:00:51.687Z,2.90
2017-12-13T22:03:19.835Z,2.90
2017-12-13T22:05:49.472Z,2.90
2017-12-13T22:08:17.619Z,2.90
2017-12-13T22:10:45.745Z,2.90
2017-12-13T22:13:13.888Z,2.90
2017-12-13T22:15:42.248Z,2.90
2017-12-13T22:18:11.208Z,2.90
2017-12-13T22:20:40.136Z,2.90
2017-12-13T22:23:08.264Z,2.90
2017-12-13T22:25:36.384Z,2.90
2017-12-13T22:28:04.528Z,3.00
2017-12-13T22:30:33.423Z,2.90
2017-12-13T22:33:02.452Z,2.90
2017-12-13T22:35:30.563Z,2.90
2017-12-13T22:37:58.691Z,2.90
2017-12-13T22:40:26.844Z,2.90
2017-12-13T22:42:55.733Z,2.90
2017-12-13T22:45:23.878Z,2.90
2017-12-13T22:47:52.075Z,2.90
2017-12-13T22:50:20.988Z,2.90
2017-12-13T22:52:49.109Z,2.90
2017-12-13T22:55:17.224Z,2.80
2017-12-13T22:57:45.434Z,2.80
2017-12-13T23:00:13.566Z,2.80
2017-12-13T23:02:41.711Z,2.70
2017-12-13T23:05:11.610Z,2.70
2017-12-13T23:07:39.755Z,2.70
2017-12-13T23:10:07.887Z,2.70
2017-12-13T23:12:35.995Z,2.70
2017-12-13T23:15:04.164Z,2.80
2017-12-13T23:17:32.316Z,2.80
2017-12-13T23:20:00.474Z,2.80
2017-12-13T23:22:28.606Z,2.80
2017-12-13T23:24:56.729Z,2.80
2017-12-13T23:27:24.852Z,2.80
2017-12-13T23:29:53.011Z,2.80
2017-12-13T23:32:21.127Z,2.80
2017-12-13T23:34:50.017Z,2.80
2017-12-13T23:37:18.929Z,2.80
2017-12-13T23:39:47.042Z,2.80
2017-12-13T23:42:15.156Z,2.90
2017-12-13T23:44:43.272Z,2.90
2017-12-13T23:47:11.412Z,2.90
2017-12-13T23:49:39.522Z,2.90
2017-12-13T23:52:07.678Z,2.90
2017-12-13T23:54:35.800Z,2.90
2017-12-13T23:57:03.919Z,2.90
2017-12-13T23:59:32.050Z,2.90
